createdAt,value
2022-12-16T00:01:11.627Z,5.63
2022-12-16T00:03:39.977Z,6.10
2022-12-16T00:06:08.330Z,5.53
2022-12-16T00:08:37.348Z,6.30
2022-12-16T00:11:04.475Z,5.65
2022-12-16T00:13:33.218Z,5.45
2022-12-16T00:16:03.911Z,5.68
2022-12-16T00:18:30.699Z,5.43
2022-12-16T00:20:57.619Z,5.50
2022-12-16T00:23:24.373Z,5.40
2022-12-16T00:25:51.892Z,4.72
2022-12-16T00:28:22.926Z,5.05
2022-12-16T00:30:55.378Z,5.00
2022-12-16T00:35:50.733Z,5.07
2022-12-16T00:38:19.488Z,4.85
2022-12-16T00:40:46.515Z,5.07
2022-12-16T00:43:13.625Z,4.70
2022-12-16T00:45:40.503Z,4.97
2022-12-16T00:48:08.427Z,4.38
2022-12-16T00:50:36.045Z,5.53
2022-12-16T00:53:03.635Z,5.25
2022-12-16T00:55:30.715Z,4.88
2022-12-16T00:57:57.422Z,4.85
2022-12-16T01:00:24.584Z,4.43
2022-12-16T01:02:52.003Z,4.95
2022-12-16T01:05:26.641Z,5.35
2022-12-16T01:07:54.968Z,5.57
2022-12-16T01:10:23.631Z,5.55
2022-12-16T01:12:50.846Z,5.97
2022-12-16T01:15:18.807Z,5.85
2022-12-16T01:17:46.073Z,5.28
2022-12-16T01:20:14.162Z,5.55
2022-12-16T01:22:41.963Z,6.40
2022-12-16T01:25:11.815Z,5.57
2022-12-16T01:27:38.975Z,6.00
2022-12-16T01:30:06.384Z,6.13
2022-12-16T01:32:33.107Z,6.55
2022-12-16T01:35:00.495Z,6.20
2022-12-16T01:37:27.228Z,5.88
2022-12-16T01:39:53.954Z,5.15
2022-12-16T01:42:22.754Z,5.80
2022-12-16T01:44:52.203Z,5.43
2022-12-16T01:47:32.751Z,5.70
2022-12-16T01:50:00.951Z,5.25
2022-12-16T01:52:32.883Z,6.28
2022-12-16T01:55:07.852Z,6.00
2022-12-16T01:57:41.532Z,6.13
2022-12-16T02:00:10.367Z,5.88
2022-12-16T02:02:41.779Z,6.03
2022-12-16T02:05:20.913Z,6.47
2022-12-16T02:08:02.383Z,6.07
2022-12-16T02:10:44.376Z,6.45
2022-12-16T02:13:31.420Z,4.53
2022-12-16T02:16:16.833Z,6.45
2022-12-16T02:19:17.970Z,6.28
2022-12-16T02:21:52.603Z,6.50
2022-12-16T02:24:46.108Z,5.75
2022-12-16T02:27:57.784Z,6.03
2022-12-16T02:30:52.737Z,6.20
2022-12-16T02:33:41.756Z,6.30
2022-12-16T02:36:30.354Z,6.18
2022-12-16T02:39:08.745Z,6.22
2022-12-16T02:41:48.536Z,5.57
2022-12-16T02:44:16.965Z,5.53
2022-12-16T02:46:55.486Z,5.82
2022-12-16T02:49:22.233Z,5.95
2022-12-16T02:51:49.933Z,5.22
2022-12-16T02:54:18.601Z,5.22
2022-12-16T02:56:54.110Z,5.25
2022-12-16T03:00:02.292Z,5.35
2022-12-16T03:02:53.013Z,5.45
2022-12-16T03:05:42.014Z,5.50
2022-12-16T03:08:15.733Z,5.10
2022-12-16T03:10:45.746Z,5.25
2022-12-16T03:13:14.584Z,4.88
2022-12-16T03:15:43.165Z,4.85
2022-12-16T03:18:12.574Z,4.70
2022-12-16T03:20:46.004Z,5.10
2022-12-16T03:23:20.269Z,5.00
2022-12-16T03:25:50.615Z,4.30
2022-12-16T03:28:36.327Z,5.05
2022-12-16T03:31:36.899Z,5.00
2022-12-16T03:34:25.436Z,4.70
2022-12-16T03:37:00.363Z,4.50
2022-12-16T03:39:27.942Z,4.18
2022-12-16T03:41:55.986Z,4.32
2022-12-16T03:44:25.517Z,4.63
2022-12-16T03:46:52.809Z,4.90
2022-12-16T03:49:19.558Z,4.25
2022-12-16T03:51:46.303Z,5.25
2022-12-16T03:54:12.999Z,4.30
2022-12-16T03:56:39.720Z,4.18
2022-12-16T03:59:06.526Z,6.03
2022-12-16T04:01:33.391Z,4.30
2022-12-16T04:04:00.210Z,4.43
2022-12-16T04:06:27.002Z,6.20
2022-12-16T04:08:53.664Z,5.18
2022-12-16T04:11:38.830Z,4.80
2022-12-16T04:14:24.290Z,5.43
2022-12-16T04:17:09.902Z,6.15
2022-12-16T04:19:56.962Z,5.15
2022-12-16T04:22:48.528Z,9.45
2022-12-16T04:25:36.332Z,4.93
2022-12-16T04:28:03.055Z,5.10
2022-12-16T04:30:34.651Z,5.43
2022-12-16T04:33:23.322Z,4.65
2022-12-16T04:36:08.678Z,4.13
2022-12-16T04:38:54.192Z,3.70
2022-12-16T04:41:39.863Z,3.85
2022-12-16T04:44:25.515Z,4.22
2022-12-16T04:47:10.884Z,4.05
2022-12-16T04:49:56.220Z,3.97
2022-12-16T04:52:41.626Z,4.07
2022-12-16T04:55:27.711Z,4.30
2022-12-16T04:58:15.107Z,4.10
2022-12-16T05:01:01.164Z,3.92
2022-12-16T05:03:46.786Z,4.35
2022-12-16T05:06:32.784Z,4.03
2022-12-16T05:09:18.401Z,4.20
2022-12-16T05:12:03.978Z,4.43
2022-12-16T05:14:49.454Z,4.20
2022-12-16T05:17:34.911Z,5.97
2022-12-16T05:20:20.327Z,7.63
2022-12-16T05:23:05.936Z,5.63
2022-12-16T05:25:51.290Z,5.70
2022-12-16T05:28:37.091Z,5.60
2022-12-16T05:31:22.433Z,4.93
2022-12-16T05:34:07.723Z,18.48
2022-12-16T05:36:53.203Z,22.10
2022-12-16T05:39:38.515Z,21.00
2022-12-16T05:42:24.117Z,17.55
2022-12-16T05:45:09.565Z,6.40
2022-12-16T05:47:55.059Z,5.35
2022-12-16T05:50:40.533Z,6.72
2022-12-16T05:53:29.110Z,8.40
2022-12-16T05:56:14.981Z,7.97
2022-12-16T05:59:00.507Z,13.75
2022-12-16T06:01:46.130Z,4.78
2022-12-16T06:04:31.416Z,6.85
2022-12-16T06:07:16.739Z,5.20
2022-12-16T06:10:02.189Z,4.70
2022-12-16T06:12:47.668Z,4.72
2022-12-16T06:15:33.175Z,5.75
2022-12-16T06:18:18.648Z,6.32
2022-12-16T06:21:04.131Z,7.47
2022-12-16T06:23:49.716Z,7.18
2022-12-16T06:26:35.867Z,7.40
2022-12-16T06:29:21.415Z,7.40
2022-12-16T06:32:06.849Z,7.57
2022-12-16T06:34:52.274Z,7.45
2022-12-16T06:37:37.799Z,7.60
2022-12-16T06:40:23.828Z,6.80
2022-12-16T06:43:09.236Z,6.78
2022-12-16T06:45:54.726Z,7.20
2022-12-16T06:48:39.872Z,7.45
2022-12-16T06:51:25.312Z,6.72
2022-12-16T06:54:10.861Z,6.80
2022-12-16T06:56:56.288Z,7.57
2022-12-16T06:59:41.734Z,7.38
2022-12-16T07:02:30.741Z,7.22
2022-12-16T07:05:15.914Z,7.80
2022-12-16T07:08:08.996Z,8.20
2022-12-16T07:10:54.985Z,8.60
2022-12-16T07:13:41.042Z,9.23
2022-12-16T07:16:26.448Z,9.40
2022-12-16T07:19:11.559Z,8.82
2022-12-16T07:21:57.016Z,8.75
2022-12-16T07:24:42.492Z,8.75
2022-12-16T07:27:27.887Z,9.98
2022-12-16T07:30:13.295Z,8.88
2022-12-16T07:32:58.375Z,37.92
2022-12-16T07:35:43.775Z,19.40
2022-12-16T07:38:29.342Z,10.40
2022-12-16T07:41:14.460Z,9.50
2022-12-16T07:44:00.106Z,9.45
2022-12-16T07:46:45.590Z,9.73
2022-12-16T07:49:31.044Z,9.85
2022-12-16T07:52:16.621Z,10.60
2022-12-16T07:55:02.106Z,11.15
2022-12-16T07:57:47.671Z,12.18
2022-12-16T08:00:33.404Z,10.23
2022-12-16T08:03:18.954Z,10.65
2022-12-16T08:06:04.260Z,8.57
2022-12-16T08:08:49.721Z,9.20
2022-12-16T08:11:35.097Z,8.85
2022-12-16T08:14:20.518Z,9.77
2022-12-16T08:17:06.016Z,9.52
2022-12-16T08:19:51.437Z,9.18
2022-12-16T08:22:36.812Z,8.90
2022-12-16T08:25:22.302Z,8.25
2022-12-16T08:28:14.018Z,8.57
2022-12-16T08:30:59.622Z,8.82
2022-12-16T08:33:44.961Z,7.95
2022-12-16T08:36:30.278Z,8.10
2022-12-16T08:39:15.698Z,7.65
2022-12-16T08:42:01.278Z,8.15
2022-12-16T08:44:46.714Z,7.85
2022-12-16T08:47:31.831Z,6.28
2022-12-16T08:50:17.189Z,7.10
2022-12-16T08:53:02.642Z,6.40
2022-12-16T08:55:48.282Z,6.95
2022-12-16T08:58:33.487Z,7.03
2022-12-16T09:01:18.984Z,7.25
2022-12-16T09:04:04.206Z,8.13
2022-12-16T09:06:49.496Z,6.30
2022-12-16T09:09:34.973Z,5.85
2022-12-16T09:12:20.422Z,5.55
2022-12-16T09:15:05.877Z,8.25
2022-12-16T09:17:51.272Z,6.97
2022-12-16T09:20:36.735Z,7.35
2022-12-16T09:23:23.418Z,7.03
2022-12-16T09:26:08.788Z,7.13
2022-12-16T09:28:54.170Z,7.32
2022-12-16T09:31:40.160Z,8.10
2022-12-16T09:34:25.535Z,7.82
2022-12-16T09:37:10.937Z,10.52
2022-12-16T09:39:56.075Z,10.45
2022-12-16T09:43:01.985Z,11.82
2022-12-16T09:46:15.289Z,12.80
2022-12-16T09:49:19.380Z,14.15
2022-12-16T09:52:06.421Z,14.07
2022-12-16T09:54:55.319Z,13.20
2022-12-16T09:57:43.340Z,13.52
2022-12-16T10:00:42.687Z,14.52
2022-12-16T10:03:41.328Z,16.15
2022-12-16T10:06:41.492Z,14.45
2022-12-16T10:09:45.724Z,15.15
2022-12-16T10:12:40.895Z,14.45
2022-12-16T10:16:06.031Z,13.30
2022-12-16T10:18:54.452Z,12.80
2022-12-16T10:21:47.265Z,12.82
2022-12-16T10:24:44.462Z,14.70
2022-12-16T10:27:35.221Z,14.45
2022-12-16T10:30:21.619Z,13.07
2022-12-16T10:33:09.050Z,12.05
2022-12-16T10:36:06.070Z,13.75
2022-12-16T10:39:03.832Z,13.07
2022-12-16T10:41:53.266Z,12.27
2022-12-16T10:45:11.212Z,13.30
2022-12-16T10:47:56.817Z,13.38
2022-12-16T10:50:42.264Z,14.48
2022-12-16T10:53:34.274Z,15.20
2022-12-16T10:56:48.599Z,14.18
2022-12-16T10:59:33.933Z,14.85
2022-12-16T11:02:23.538Z,17.23
2022-12-16T11:05:09.364Z,14.52
2022-12-16T11:08:12.059Z,14.20
2022-12-16T11:11:00.137Z,14.02
2022-12-16T11:13:51.352Z,14.10
2022-12-16T11:16:44.867Z,13.55
2022-12-16T11:19:45.146Z,14.50
2022-12-16T11:22:37.494Z,14.82
2022-12-16T11:25:26.158Z,14.52
2022-12-16T11:28:32.099Z,16.85
2022-12-16T11:31:22.155Z,14.23
2022-12-16T11:34:09.228Z,15.60
2022-12-16T11:36:56.953Z,14.20
2022-12-16T11:39:44.818Z,15.32
2022-12-16T11:42:40.904Z,16.33
2022-12-16T11:45:32.851Z,16.42
2022-12-16T11:48:43.922Z,16.57
2022-12-16T11:51:32.253Z,16.38
2022-12-16T11:54:18.724Z,16.13
2022-12-16T11:57:04.986Z,17.35
2022-12-16T11:59:59.235Z,24.17
2022-12-16T12:02:56.637Z,18.13
2022-12-16T12:05:55.898Z,16.75
2022-12-16T12:08:59.504Z,16.58
2022-12-16T12:11:50.838Z,17.95
2022-12-16T12:15:02.995Z,16.25
2022-12-16T12:18:01.623Z,18.08
2022-12-16T12:21:00.868Z,17.95
2022-12-16T12:24:06.748Z,16.50
2022-12-16T12:26:56.239Z,16.83
2022-12-16T12:30:10.349Z,17.08
2022-12-16T12:33:18.383Z,18.10
2022-12-16T12:36:03.422Z,18.38
2022-12-16T12:39:16.014Z,15.07
2022-12-16T12:42:22.029Z,15.15
2022-12-16T12:45:38.195Z,16.55
2022-12-16T12:48:35.958Z,16.83
2022-12-16T12:51:33.593Z,15.45
2022-12-16T12:54:37.672Z,18.10
2022-12-16T12:57:25.163Z,15.90
2022-12-16T13:00:32.675Z,16.70
2022-12-16T13:03:37.435Z,18.02
2022-12-16T13:06:23.591Z,16.60
2022-12-16T13:09:08.780Z,18.10
2022-12-16T13:11:55.332Z,17.60
2022-12-16T13:14:50.336Z,18.75
2022-12-16T13:17:41.162Z,15.18
2022-12-16T13:20:53.788Z,17.27
2022-12-16T13:23:47.965Z,15.27
2022-12-16T13:26:39.265Z,20.90
2022-12-16T13:29:44.139Z,18.98
2022-12-16T13:32:45.910Z,17.92
2022-12-16T13:35:31.392Z,17.38
2022-12-16T13:38:21.640Z,16.33
2022-12-16T13:41:22.036Z,14.10
2022-12-16T13:44:17.694Z,16.30
2022-12-16T13:47:08.881Z,14.38
2022-12-16T13:50:06.506Z,14.27
2022-12-16T13:53:15.396Z,15.55
2022-12-16T13:56:23.209Z,17.63
2022-12-16T13:59:20.680Z,17.40
2022-12-16T14:02:06.324Z,17.05
2022-12-16T14:04:58.331Z,16.98
2022-12-16T14:07:45.503Z,17.08
2022-12-16T14:10:45.648Z,16.02
2022-12-16T14:13:54.458Z,18.42
2022-12-16T14:17:07.155Z,17.85
2022-12-16T14:20:21.514Z,16.10
2022-12-16T14:23:56.458Z,17.00
2022-12-16T14:26:54.175Z,16.05
2022-12-16T14:29:41.141Z,17.13
2022-12-16T14:32:48.434Z,17.13
2022-12-16T14:35:42.138Z,17.42
2022-12-16T14:38:42.271Z,15.18
2022-12-16T14:41:36.358Z,17.05
2022-12-16T14:44:23.713Z,16.92
2022-12-16T14:47:11.854Z,16.85
2022-12-16T14:50:11.544Z,17.85
2022-12-16T14:52:57.630Z,16.50
2022-12-16T14:55:49.308Z,16.77
2022-12-16T14:58:37.365Z,16.25
2022-12-16T15:01:40.888Z,89.10
2022-12-16T15:04:36.798Z,35.67
2022-12-16T15:07:31.073Z,23.67
2022-12-16T15:10:17.950Z,32.70
2022-12-16T15:13:06.852Z,29.67
2022-12-16T15:15:58.207Z,70.38
2022-12-16T15:18:49.447Z,20.02
2022-12-16T15:21:34.988Z,18.25
2022-12-16T15:24:20.588Z,33.25
2022-12-16T15:27:06.090Z,27.55
2022-12-16T15:29:59.873Z,19.15
2022-12-16T15:32:49.862Z,31.05
2022-12-16T15:35:54.298Z,28.63
2022-12-16T15:38:50.027Z,20.48
2022-12-16T15:41:50.008Z,20.17
2022-12-16T15:44:45.389Z,20.45
2022-12-16T15:47:51.689Z,20.85
2022-12-16T15:50:47.028Z,21.15
2022-12-16T15:53:54.406Z,20.55
2022-12-16T15:57:01.317Z,22.60
2022-12-16T15:59:52.744Z,21.13
2022-12-16T16:02:47.938Z,20.85
2022-12-16T16:05:42.700Z,18.77
2022-12-16T16:08:29.337Z,21.13
2022-12-16T16:11:14.918Z,23.33
2022-12-16T16:14:06.207Z,21.70
2022-12-16T16:16:55.105Z,23.08
2022-12-16T16:19:43.257Z,28.48
2022-12-16T16:22:30.778Z,24.52
2022-12-16T16:25:16.457Z,25.58
2022-12-16T16:28:02.005Z,21.00
2022-12-16T16:30:55.156Z,23.88
2022-12-16T16:33:40.634Z,20.70
2022-12-16T16:36:33.812Z,19.70
2022-12-16T16:39:19.550Z,18.27
2022-12-16T16:42:04.857Z,20.17
2022-12-16T16:44:50.154Z,22.58
2022-12-16T16:47:36.162Z,28.55
2022-12-16T16:50:21.555Z,21.70
2022-12-16T16:53:07.104Z,19.85
2022-12-16T16:55:52.500Z,19.70
2022-12-16T16:58:45.616Z,22.90
2022-12-16T17:01:32.734Z,21.35
2022-12-16T17:04:18.365Z,21.30
2022-12-16T17:07:03.840Z,20.13
2022-12-16T17:09:49.201Z,17.88
2022-12-16T17:12:43.446Z,22.25
2022-12-16T17:15:38.842Z,23.27
2022-12-16T17:18:25.315Z,21.20
2022-12-16T17:21:11.288Z,21.80
2022-12-16T17:23:57.445Z,19.33
2022-12-16T17:26:43.778Z,21.33
2022-12-16T17:29:40.941Z,20.67
2022-12-16T17:32:26.795Z,18.95
2022-12-16T17:35:12.196Z,17.30
2022-12-16T17:37:57.683Z,17.48
2022-12-16T17:40:43.139Z,17.58
2022-12-16T17:43:28.619Z,16.52
2022-12-16T17:46:16.322Z,16.27
2022-12-16T17:49:01.763Z,17.70
2022-12-16T17:51:47.473Z,17.35
2022-12-16T17:54:32.780Z,18.55
2022-12-16T17:57:18.258Z,16.95
2022-12-16T18:00:03.710Z,18.08
2022-12-16T18:02:57.970Z,16.05
2022-12-16T18:05:44.790Z,17.38
2022-12-16T18:08:30.626Z,16.20
2022-12-16T18:11:17.265Z,18.45
2022-12-16T18:14:03.152Z,20.17
2022-12-16T18:16:48.773Z,19.02
2022-12-16T18:19:34.693Z,15.38
2022-12-16T18:22:20.096Z,16.98
2022-12-16T18:25:05.704Z,16.63
2022-12-16T18:27:51.039Z,16.85
2022-12-16T18:30:36.614Z,17.40
2022-12-16T18:33:22.305Z,17.55
2022-12-16T18:36:07.845Z,18.33
2022-12-16T18:38:53.407Z,19.40
2022-12-16T18:41:41.192Z,20.67
2022-12-16T18:44:30.511Z,18.38
2022-12-16T18:47:16.151Z,17.98
2022-12-16T18:50:01.659Z,17.15
2022-12-16T18:52:47.066Z,17.40
2022-12-16T18:55:32.723Z,15.30
2022-12-16T18:58:49.188Z,16.27
2022-12-16T19:01:27.333Z,17.00
2022-12-16T19:04:14.194Z,15.60
2022-12-16T19:06:59.607Z,15.45
2022-12-16T19:09:45.135Z,16.10
2022-12-16T19:12:30.942Z,15.82
2022-12-16T19:15:16.134Z,15.90
2022-12-16T19:18:01.464Z,17.73
2022-12-16T19:20:47.107Z,21.02
2022-12-16T19:23:34.396Z,17.75
2022-12-16T19:26:20.419Z,17.42
2022-12-16T19:29:05.862Z,16.17
2022-12-16T19:31:51.788Z,16.85
2022-12-16T19:34:37.220Z,17.88
2022-12-16T19:37:22.741Z,17.67
2022-12-16T19:40:08.344Z,16.55
2022-12-16T19:42:54.858Z,17.33
2022-12-16T19:45:41.306Z,17.02
2022-12-16T19:48:26.589Z,20.77
2022-12-16T19:51:19.676Z,20.42
2022-12-16T19:54:05.790Z,24.92
2022-12-16T19:56:52.192Z,40.95
2022-12-16T19:59:40.973Z,35.28
2022-12-16T20:02:29.677Z,24.63
2022-12-16T20:05:15.255Z,19.85
2022-12-16T20:08:00.837Z,17.02
2022-12-16T20:10:46.486Z,18.98
2022-12-16T20:13:32.053Z,22.63
2022-12-16T20:16:25.193Z,19.10
2022-12-16T20:19:10.773Z,17.85
2022-12-16T20:21:57.100Z,18.00
2022-12-16T20:24:44.007Z,19.23
2022-12-16T20:27:29.988Z,19.08
2022-12-16T20:30:16.584Z,18.63
2022-12-16T20:33:01.994Z,20.05
2022-12-16T20:35:47.471Z,17.70
2022-12-16T20:38:32.800Z,18.35
2022-12-16T20:41:19.307Z,18.85
2022-12-16T20:44:09.010Z,18.10
2022-12-16T20:46:56.250Z,18.42
2022-12-16T20:49:41.773Z,18.63
2022-12-16T20:52:27.320Z,18.73
2022-12-16T20:55:12.645Z,17.98
2022-12-16T20:57:58.140Z,17.90
2022-12-16T21:00:43.699Z,16.48
2022-12-16T21:03:28.911Z,17.63
2022-12-16T21:06:14.564Z,16.45
2022-12-16T21:08:59.908Z,15.88
2022-12-16T21:11:45.391Z,17.35
2022-12-16T21:14:30.887Z,16.73
2022-12-16T21:17:16.445Z,15.32
2022-12-16T21:20:01.977Z,15.98
2022-12-16T21:22:47.226Z,16.48
2022-12-16T21:25:32.807Z,16.90
2022-12-16T21:28:18.388Z,16.45
2022-12-16T21:31:04.643Z,17.95
2022-12-16T21:33:50.508Z,17.20
2022-12-16T21:36:37.343Z,16.45
2022-12-16T21:39:23.054Z,18.10
2022-12-16T21:42:08.450Z,17.10
2022-12-16T21:48:00.253Z,15.77
2022-12-16T21:50:45.803Z,17.02
2022-12-16T21:53:31.171Z,15.75
2022-12-16T21:56:16.670Z,15.98
2022-12-16T21:59:15.953Z,16.25
2022-12-16T22:02:01.457Z,16.45
2022-12-16T22:04:46.549Z,16.80
2022-12-16T22:07:32.108Z,15.65
2022-12-16T22:10:17.626Z,15.40
2022-12-16T22:13:02.896Z,15.25
2022-12-16T22:15:48.419Z,14.65
2022-12-16T22:18:35.939Z,14.30
2022-12-16T22:21:23.637Z,15.70
2022-12-16T22:24:09.714Z,14.48
2022-12-16T22:26:55.223Z,15.40
2022-12-16T22:29:42.028Z,14.55
2022-12-16T22:32:27.452Z,14.43
2022-12-16T22:35:12.870Z,14.93
2022-12-16T22:37:58.345Z,15.60
2022-12-16T22:40:43.735Z,16.42
2022-12-16T22:43:29.152Z,17.38
2022-12-16T22:46:19.183Z,16.48
2022-12-16T22:49:05.630Z,15.88
2022-12-16T22:51:50.913Z,16.42
2022-12-16T22:54:36.406Z,16.95
2022-12-16T22:57:21.806Z,16.23
2022-12-16T23:00:07.207Z,17.52
2022-12-16T23:02:52.826Z,14.55
2022-12-16T23:05:39.146Z,14.15
2022-12-16T23:08:27.823Z,15.20
2022-12-16T23:11:18.504Z,14.13
2022-12-16T23:14:04.082Z,13.70
2022-12-16T23:16:49.468Z,16.05
2022-12-16T23:19:34.752Z,14.90
2022-12-16T23:22:20.219Z,15.95
2022-12-16T23:25:05.804Z,14.75
2022-12-16T23:27:51.253Z,15.25
2022-12-16T23:30:37.158Z,15.43
2022-12-16T23:33:22.568Z,17.02
2022-12-16T23:36:08.015Z,18.52
2022-12-16T23:38:53.529Z,17.63
2022-12-16T23:41:39.102Z,17.30
2022-12-16T23:44:24.503Z,16.90
2022-12-16T23:47:10.043Z,18.52
2022-12-16T23:49:56.451Z,17.80
2022-12-16T23:52:42.000Z,18.65
2022-12-16T23:55:27.955Z,19.02
2022-12-16T23:58:21.030Z,19.60
